X  Sluiten METAR luchtvaart weer gegevens      EHKD De Kooy Airport
Temperatuur
16°C Temperatuur
12°C Dauwpunt
77% Vochtigheid



Wind
23 KM/U
14 MPH
6 M/S
12 KTS



230°
ZW
Huidig weer

Lichte Regen Lichte Regen
Luchtdruk 1009.82 (hPa) - 29.82 (inHg)
Zicht 6 (mijl) - 9.7 (km)
Vliegveld
Vliegveld code EHKD

Locatie : De Kooy Airport
Afstand: 34 (km)

Metar:
EHKD 140055Z AUTO 23012KT 200V260 9999 -RA SCT018 BKN025 BKN031 16/12 Q1010 BLU

Tijd: 14-07-2024 02:55 CEST